Flight Track Log - Related Links

Times and Time Zones

All times are in EDT time to prevent confusion due to time zone crossing. See the AWE1253 flight status page for this flight to view local times or setup timezone preferences in your user account.

Time Position Orientation Groundspeed Altitude Reporting Facility
EDT Latitude Longitude Course Direction KTS MPH feet Rate Location/Type
Wed 08:32:35 PM 39.8667 -75.2833 237° Southwest 177 204 800  Level Philadelphia TRACON
Wed 08:33:11 PM 39.8500 -75.3167 237° Southwest 190 219 2,000 2,125 Climbing Philadelphia TRACON
Wed 08:34:11 PM 39.8500 -75.4000 270° West 239 275 4,200 2,777 Climbing Philadelphia TRACON
Wed 08:36:19 PM 39.8408 -75.6158 267° West 282 325 10,700 2,558 Climbing New York Center
Wed 08:37:21 PM 39.8386 -75.7236 268° West 289 333 12,300 1,500 Climbing New York Center
Wed 08:38:19 PM 39.8106 -75.8461 253° West 342 394 13,700 1,881 Climbing New York Center
Wed 08:39:19 PM 39.7414 -75.9492 229° Southwest 363 418 16,000 2,479 Climbing New York Center
Wed 08:40:20 PM 39.6853 -76.0394 231° Southwest 397 457 18,700 2,281 Climbing New York Center
Wed 08:41:20 PM 39.6175 -76.1556 233° Southwest 397 457 20,600 1,450 Climbing New York Center
Wed 08:42:20 PM 39.5411 -76.2711 229° Southwest 408 470 21,600 1,250 Climbing New York Center
Wed 08:43:20 PM 39.4694 -76.3844 231° Southwest 414 476 23,100 1,950 Climbing Washington Center
Wed 08:44:20 PM 39.3914 -76.5044 230° Southwest 419 482 25,500 2,200 Climbing Washington Center
Wed 08:45:20 PM 39.3156 -76.6189 229° Southwest 424 488 27,500 1,831 Climbing Washington Center
Wed 08:46:18 PM 39.2375 -76.7225 226° Southwest 419 482 29,100 1,311 Climbing Washington Center
Wed 08:47:19 PM 39.1469 -76.8147 218° Southwest 414 476 30,100 446 Climbing Washington Center
Wed 08:48:19 PM 39.0481 -76.9014 214° Southwest 425 489 30,000  Descending Washington Center
Wed 08:49:18 PM 38.9492 -76.9903 215° Southwest 435 501 30,100  Climbing Washington Center
Wed 08:50:19 PM 38.8603 -77.0844 220° Southwest 430 495 30,000 -50 Descending Washington Center
Wed 08:51:19 PM 38.7756 -77.1972 226° Southwest 430 495 30,000  Level Washington Center
Wed 08:52:20 PM 38.6886 -77.3072 225° Southwest 440 506 30,000  Level Washington Center
Wed 08:53:21 PM 38.5928 -77.4297 225° Southwest 440 506 30,000 51 Level Washington Center
Wed 08:54:18 PM 38.5056 -77.5392 224° Southwest 440 506 30,100 51 Climbing Washington Center
Wed 08:55:18 PM 38.4122 -77.6425 221° Southwest 445 512 30,100  Level Washington Center
Wed 08:56:20 PM 38.3125 -77.7431 218° Southwest 450 518 30,100 -49 Level Washington Center
Wed 08:57:20 PM 38.2189 -77.8433 220° Southwest 450 518 30,000  Descending Washington Center
Wed 08:58:18 PM 38.1189 -77.9433 218° Southwest 456 525 30,100 51 Climbing Washington Center
Wed 08:59:18 PM 38.0211 -78.0431 219° Southwest 456 525 30,100  Level Washington Center
Wed 09:00:19 PM 37.9336 -78.1325 219° Southwest 450 518 30,100  Level Washington Center
Wed 09:01:20 PM 37.8375 -78.2344 220° Southwest 456 525 30,100  Level Washington Center
Wed 09:02:18 PM 37.7267 -78.3408 217° Southwest 456 525 30,100 -51 Level Washington Center
Wed 09:03:18 PM 37.6264 -78.4394 218° Southwest 456 525 30,000  Descending Washington Center
Wed 09:04:19 PM 37.5281 -78.5378 218° Southwest 456 525 30,100 50 Climbing Washington Center
Wed 09:05:19 PM 37.4256 -78.6386 218° Southwest 456 525 30,100  Level Washington Center
Wed 09:06:20 PM 37.3378 -78.7264 218° Southwest 456 525 30,100 -50 Level Washington Center
Wed 09:07:18 PM 37.2411 -78.8294 220° Southwest 456 525 30,000  Descending Washington Center
Wed 09:08:18 PM 37.1464 -78.9322 221° Southwest 461 531 30,100 50 Climbing Washington Center
Wed 09:09:19 PM 37.0517 -79.0400 222° Southwest 461 531 30,100 -50 Level Washington Center
Wed 09:10:18 PM 36.9586 -79.1478 223° Southwest 461 531 30,000 -50 Descending Washington Center
Wed 09:11:19 PM 36.8572 -79.2625 222° Southwest 454 522 30,000 50 Level Washington Center
Wed 09:12:19 PM 36.7642 -79.3694 223° Southwest 454 522 30,100  Climbing Washington Center
Wed 09:13:20 PM 36.6689 -79.4736 221° Southwest 454 522 30,000  Descending Washington Center
Wed 09:14:18 PM 36.5778 -79.5803 223° Southwest 454 522 30,100 51 Climbing Washington Center
Wed 09:15:18 PM 36.4958 -79.6717 222° Southwest 455 524 30,100 -50 Level Atlanta Center
Wed 09:16:18 PM 36.4033 -79.7747 222° Southwest 449 517 30,000  Descending Atlanta Center
Wed 09:17:18 PM 36.3172 -79.8772 224° Southwest 449 517 30,100  Climbing Atlanta Center
Wed 09:18:18 PM 36.2203 -79.9697 218° Southwest 449 517 30,000  Descending Atlanta Center
Wed 09:19:18 PM 36.1067 -80.0656 214° Southwest 449 517 30,100 50 Climbing Atlanta Center
Wed 09:20:18 PM 36.0072 -80.1575 217° Southwest 449 517 30,100 -50 Level Atlanta Center
Wed 09:21:18 PM 35.9100 -80.2494 217° Southwest 449 517 30,000  Descending Atlanta Center
Wed 09:22:18 PM 35.8097 -80.3078 205° Southwest 442 509 30,100  Climbing Atlanta Center
Wed 09:23:18 PM 35.6922 -80.3542 198° South 447 514 30,000 -50 Descending Atlanta Center
Wed 09:24:18 PM 35.5769 -80.4103 202° Southwest 454 522 30,000 50 Level Atlanta Center
Wed 09:25:18 PM 35.4617 -80.4614 200° South 448 516 30,100  Climbing Atlanta Center
Wed 09:26:18 PM 35.3339 -80.5206 201° Southwest 448 516 30,000 -50 Descending Atlanta Center
Wed 09:27:18 PM 35.2186 -80.5711 200° South 443 510 30,000  Level Atlanta Center
Wed 09:28:18 PM 35.1053 -80.6242 201° Southwest 443 510 30,000 30 Level Atlanta Center
Wed 09:30:41 PM 34.8319 -80.7453 200° South 435 501 30,100  Climbing Jacksonville Center
Wed 09:31:41 PM 34.7181 -80.7961 200° South 440 506 30,000 -50 Descending Jacksonville Center
Wed 09:32:41 PM 34.6022 -80.8444 199° South 440 506 30,000  Level Jacksonville Center
Wed 09:33:41 PM 34.4903 -80.8975 201° Southwest 440 506 30,000 50 Level Jacksonville Center
Wed 09:34:41 PM 34.3764 -80.9453 199° South 445 512 30,100  Climbing Jacksonville Center
Wed 09:35:41 PM 34.2667 -80.9956 201° Southwest 445 512 30,000 -50 Descending Jacksonville Center
Wed 09:36:41 PM 34.1628 -81.0381 199° South 430 495 30,000  Level Jacksonville Center
Wed 09:37:41 PM 34.0447 -81.0881 199° South 430 495 30,000  Level Jacksonville Center
Wed 09:38:41 PM 33.9286 -81.1356 199° South 443 510 30,000 50 Level Jacksonville Center
Wed 09:39:41 PM 33.8103 -81.1853 199° South 448 516 30,100  Climbing Jacksonville Center
Wed 09:40:41 PM 33.6900 -81.2400 201° Southwest 453 521 30,000 -50 Descending Jacksonville Center
Wed 09:41:41 PM 33.5739 -81.2922 201° Southwest 453 521 30,000  Level Jacksonville Center
Wed 09:42:41 PM 33.4553 -81.3417 199° South 453 521 30,000  Level Jacksonville Center
Wed 09:43:41 PM 33.3392 -81.3908 199° South 453 521 30,000  Level Jacksonville Center
Wed 09:44:41 PM 33.2186 -81.4425 200° South 453 521 30,000  Level Jacksonville Center
Wed 09:45:41 PM 33.1003 -81.4917 199° South 453 521 30,000  Level Jacksonville Center
Wed 09:46:41 PM 32.9819 -81.5431 200° South 453 521 30,000  Level Jacksonville Center
Wed 09:47:41 PM 32.8675 -81.5917 200° South 453 521 30,000  Level Jacksonville Center
Wed 09:48:41 PM 32.7492 -81.6403 199° South 448 516 30,000  Level Jacksonville Center
Wed 09:49:41 PM 32.6306 -81.6914 200° South 442 509 30,000 50 Level Jacksonville Center
Wed 09:50:41 PM 32.4994 -81.7422 198° South 448 516 30,100 50 Climbing Jacksonville Center
Wed 09:51:41 PM 32.3767 -81.7708 191° South 453 521 30,100  Level Jacksonville Center
Wed 09:52:41 PM 32.2494 -81.7994 191° South 453 521 30,100  Level Jacksonville Center
Wed 09:53:41 PM 32.1369 -81.8253 191° South 458 527 30,100  Level Jacksonville Center
Wed 09:54:41 PM 31.9975 -81.8564 191° South 469 540 30,100 -50 Level Jacksonville Center
Wed 09:55:41 PM 31.8681 -81.8822 190° South 469 540 30,000  Descending Jacksonville Center
Wed 09:56:41 PM 31.7369 -81.9106 190° South 469 540 30,100 50 Climbing Jacksonville Center
Wed 09:57:41 PM 31.6222 -81.9314 189° South 469 540 30,100 -50 Level Jacksonville Center
Wed 09:58:41 PM 31.4803 -81.9619 190° South 469 540 30,000  Descending Jacksonville Center
Wed 09:59:41 PM 31.3636 -81.9875 191° South 469 540 30,100  Climbing Jacksonville Center
Wed 10:00:41 PM 31.2219 -82.0181 190° South 469 540 30,000 -50 Descending Jacksonville Center
Wed 10:01:41 PM 31.0947 -82.0458 191° South 469 540 30,000  Level Jacksonville Center
Wed 10:02:41 PM 30.9656 -82.0736 190° South 469 540 30,000  Level Jacksonville Center
Wed 10:03:41 PM 30.8486 -82.1014 192° South 469 540 30,000  Level Jacksonville Center
Wed 10:04:41 PM 30.7214 -82.1264 190° South 469 540 30,000  Level Jacksonville Center
Wed 10:05:41 PM 30.5942 -82.1542 191° South 469 540 30,000  Level Jacksonville Center
Wed 10:06:41 PM 30.4544 -82.1769 188° South 469 540 30,000  Level Jacksonville Center
Wed 10:07:41 PM 30.3253 -82.2042 190° South 469 540 30,000  Level Jacksonville Center
Wed 10:08:41 PM 30.2000 -82.2292 190° South 469 540 30,000  Level Jacksonville Center
Wed 10:09:41 PM 30.0728 -82.2564 190° South 469 540 30,000 -450 Level Jacksonville Center
Wed 10:10:41 PM 29.9603 -82.2836 192° South 469 540 29,100 -900 Descending Jacksonville Center
Wed 10:11:41 PM 29.8289 -82.3131 191° South 469 540 28,200 -1,050 Descending Jacksonville Center
Wed 10:12:41 PM 29.6933 -82.3356 188° South 459 528 27,000 -1,100 Descending Jacksonville Center
Wed 10:13:41 PM 29.5703 -82.3528 187° South 459 528 26,000 -500 Descending Jacksonville Center
Wed 10:14:41 PM 29.4447 -82.3417 176° South 454 522 26,000 -650 Level Jacksonville Center
Wed 10:15:41 PM 29.3217 -82.3256 173° South 449 517 24,700 -6,500 Descending Jacksonville Center
Wed 10:16:41 PM 29.2006 -82.3122 175° South 449 517 13,000 -2,850 Descending Jacksonville Center
Wed 10:17:41 PM 29.0961 -82.3008 175° South 437 503 19,000 1,800 Climbing Jacksonville Center
Wed 10:18:41 PM 28.9811 -82.2850 173° South 431 496 16,600 -2,850 Descending Jacksonville Center
Wed 10:19:41 PM 28.8581 -82.2714 174° South 417 480 13,300 -1,391 Descending Jacksonville Center
Wed 10:22:08 PM 28.6000 -82.2500 176° South 386 444 11,800 -657 Descending Tampa TRACON
Wed 10:23:02 PM 28.5000 -82.2500 180° South 378 435 11,100 -550 Descending Tampa TRACON
Wed 10:24:08 PM 28.3833 -82.2667 187° South 363 418 10,700 -571 Descending Tampa TRACON
Wed 10:25:08 PM 28.3000 -82.3000 199° South 315 362 9,900 -1,100 Descending Tampa TRACON
Wed 10:26:08 PM 28.2333 -82.3333 204° Southwest 289 333 8,500 -1,474 Descending Tampa TRACON
Wed 10:27:02 PM 28.1667 -82.3500 192° South 279 321 7,100 -895 Descending Tampa TRACON
Wed 10:28:02 PM 28.0833 -82.3833 199° South 276 318 6,800 -952 Descending Tampa TRACON
Wed 10:29:08 PM 28.0167 -82.4167 204° Southwest 273 314 5,100 -1,727 Descending Tampa TRACON
Wed 10:30:14 PM 27.9333 -82.4333 190° South 261 300 3,000 -1,143 Descending Tampa TRACON
Wed 10:31:14 PM 27.8833 -82.4667 211° Southwest 229 264 2,700 -150 Descending Tampa TRACON
Wed 10:32:14 PM 27.8500 -82.5167 233° Southwest 231 266 2,700 -500 Level Tampa TRACON
Wed 10:33:02 PM 27.8833 -82.5500 319° Northwest 205 236 1,800 -1,158 Descending Tampa TRACON
Wed 10:34:08 PM 27.9333 -82.5500 360° North 168 193 500 -1,182 Descending Tampa TRACON

Login

Don't have an account? Register now (free) for customized features, flight alerts, and more!